sensor_id;sensor_type;location;lat;lon;timestamp;pressure;altitude;pressure_sealevel;temperature;humidity
63281;BME280;49406;51.044;3.766;2022-07-06T00:00:26;102771.27;;;12.16;78.36
63281;BME280;49406;51.044;3.766;2022-07-06T00:03:00;102762.61;;;12.20;78.26
63281;BME280;49406;51.044;3.766;2022-07-06T00:05:35;102766.58;;;12.18;78.52
63281;BME280;49406;51.044;3.766;2022-07-06T00:08:09;102762.38;;;12.13;78.51
63281;BME280;49406;51.044;3.766;2022-07-06T00:10:43;102762.30;;;12.10;78.59
63281;BME280;49406;51.044;3.766;2022-07-06T00:13:18;102753.73;;;12.11;78.39
63281;BME280;49406;51.044;3.766;2022-07-06T00:15:52;102751.50;;;12.07;78.67
63281;BME280;49406;51.044;3.766;2022-07-06T00:18:27;102757.61;;;12.01;78.91
63281;BME280;49406;51.044;3.766;2022-07-06T00:21:01;102763.06;;;12.01;79.14
63281;BME280;49406;51.044;3.766;2022-07-06T00:23:35;102765.64;;;12.06;79.28
63281;BME280;49406;51.044;3.766;2022-07-06T00:26:10;102766.19;;;12.06;79.48
63281;BME280;49406;51.044;3.766;2022-07-06T00:28:44;102766.83;;;12.04;79.56
63281;BME280;49406;51.044;3.766;2022-07-06T00:31:19;102761.61;;;12.05;79.56
63281;BME280;49406;51.044;3.766;2022-07-06T00:33:53;102769.30;;;12.10;79.55
63281;BME280;49406;51.044;3.766;2022-07-06T00:36:28;102769.05;;;12.08;79.69
63281;BME280;49406;51.044;3.766;2022-07-06T00:39:02;102763.31;;;12.04;79.97
63281;BME280;49406;51.044;3.766;2022-07-06T00:41:37;102758.22;;;12.04;80.32
63281;BME280;49406;51.044;3.766;2022-07-06T00:44:11;102753.13;;;12.09;80.45
63281;BME280;49406;51.044;3.766;2022-07-06T00:46:46;102754.98;;;12.12;80.69
63281;BME280;49406;51.044;3.766;2022-07-06T00:49:20;102758.05;;;12.14;80.85
63281;BME280;49406;51.044;3.766;2022-07-06T00:52:08;102757.85;;;12.19;80.72
63281;BME280;49406;51.044;3.766;2022-07-06T00:54:44;102756.45;;;12.29;80.20
63281;BME280;49406;51.044;3.766;2022-07-06T00:57:19;102756.73;;;12.33;80.20
63281;BME280;49406;51.044;3.766;2022-07-06T00:59:54;102753.09;;;12.35;80.18
63281;BME280;49406;51.044;3.766;2022-07-06T01:02:31;102752.86;;;12.39;80.10
63281;BME280;49406;51.044;3.766;2022-07-06T01:05:07;102751.23;;;12.48;79.99
63281;BME280;49406;51.044;3.766;2022-07-06T01:07:45;102743.86;;;12.55;79.97
63281;BME280;49406;51.044;3.766;2022-07-06T01:10:21;102747.11;;;12.58;79.95
63281;BME280;49406;51.044;3.766;2022-07-06T01:12:55;102743.91;;;12.61;79.96
63281;BME280;49406;51.044;3.766;2022-07-06T01:15:30;102749.27;;;12.71;79.85
63281;BME280;49406;51.044;3.766;2022-07-06T01:18:05;102756.76;;;12.80;79.66
63281;BME280;49406;51.044;3.766;2022-07-06T01:20:39;102756.68;;;12.84;79.78
63281;BME280;49406;51.044;3.766;2022-07-06T01:23:14;102758.86;;;12.86;79.90
63281;BME280;49406;51.044;3.766;2022-07-06T01:25:48;102758.63;;;12.91;79.89
63281;BME280;49406;51.044;3.766;2022-07-06T01:28:22;102757.67;;;13.00;79.88
63281;BME280;49406;51.044;3.766;2022-07-06T01:30:57;102752.31;;;13.09;79.49
63281;BME280;49406;51.044;3.766;2022-07-06T01:33:32;102746.93;;;13.11;79.42
63281;BME280;49406;51.044;3.766;2022-07-06T01:36:07;102746.36;;;13.10;79.48
63281;BME280;49406;51.044;3.766;2022-07-06T01:38:48;102746.29;;;13.07;79.36
63281;BME280;49406;51.044;3.766;2022-07-06T01:41:23;102746.59;;;13.06;79.38
63281;BME280;49406;51.044;3.766;2022-07-06T01:43:57;102740.98;;;13.07;79.30
63281;BME280;49406;51.044;3.766;2022-07-06T01:46:32;102740.38;;;13.03;79.65
63281;BME280;49406;51.044;3.766;2022-07-06T01:49:06;102735.00;;;12.99;79.69
63281;BME280;49406;51.044;3.766;2022-07-06T01:51:41;102729.97;;;12.95;79.66
63281;BME280;49406;51.044;3.766;2022-07-06T01:54:15;102725.55;;;12.94;79.91
63281;BME280;49406;51.044;3.766;2022-07-06T01:56:49;102721.32;;;12.93;79.68
63281;BME280;49406;51.044;3.766;2022-07-06T01:59:24;102722.77;;;12.89;79.69
63281;BME280;49406;51.044;3.766;2022-07-06T02:01:58;102722.59;;;12.82;79.91
63281;BME280;49406;51.044;3.766;2022-07-06T02:04:33;102726.20;;;12.80;79.96
63281;BME280;49406;51.044;3.766;2022-07-06T02:07:07;102726.11;;;12.83;79.85
63281;BME280;49406;51.044;3.766;2022-07-06T02:09:41;102724.40;;;12.78;80.03
63281;BME280;49406;51.044;3.766;2022-07-06T02:12:16;102728.66;;;12.74;80.18
63281;BME280;49406;51.044;3.766;2022-07-06T02:14:50;102732.15;;;12.74;80.48
63281;BME280;49406;51.044;3.766;2022-07-06T02:17:25;102737.05;;;12.79;80.08
63281;BME280;49406;51.044;3.766;2022-07-06T02:19:59;102730.45;;;12.75;80.15
63281;BME280;49406;51.044;3.766;2022-07-06T02:22:33;102729.07;;;12.71;80.24
63281;BME280;49406;51.044;3.766;2022-07-06T02:25:09;102726.52;;;12.67;80.39
63281;BME280;49406;51.044;3.766;2022-07-06T02:27:43;102726.06;;;12.69;80.09
63281;BME280;49406;51.044;3.766;2022-07-06T02:30:18;102726.33;;;12.66;80.33
63281;BME280;49406;51.044;3.766;2022-07-06T02:32:52;102725.08;;;12.60;80.59
63281;BME280;49406;51.044;3.766;2022-07-06T02:35:26;102719.17;;;12.56;80.73
63281;BME280;49406;51.044;3.766;2022-07-06T02:38:01;102716.23;;;12.57;80.51
63281;BME280;49406;51.044;3.766;2022-07-06T02:40:35;102709.55;;;12.51;80.61
63281;BME280;49406;51.044;3.766;2022-07-06T02:43:09;102707.92;;;12.44;81.01
63281;BME280;49406;51.044;3.766;2022-07-06T02:45:44;102708.33;;;12.40;80.87
63281;BME280;49406;51.044;3.766;2022-07-06T02:48:18;102708.66;;;12.40;80.80
63281;BME280;49406;51.044;3.766;2022-07-06T02:50:54;102716.04;;;12.34;81.27
63281;BME280;49406;51.044;3.766;2022-07-06T02:53:29;102711.95;;;12.26;81.53
63281;BME280;49406;51.044;3.766;2022-07-06T02:56:03;102715.85;;;12.22;81.63
63281;BME280;49406;51.044;3.766;2022-07-06T02:58:38;102717.23;;;12.22;81.58
63281;BME280;49406;51.044;3.766;2022-07-06T03:01:12;102715.70;;;12.17;81.81
63281;BME280;49406;51.044;3.766;2022-07-06T03:03:46;102716.73;;;12.11;82.23
63281;BME280;49406;51.044;3.766;2022-07-06T03:06:21;102716.45;;;12.08;82.24
63281;BME280;49406;51.044;3.766;2022-07-06T03:08:55;102721.17;;;12.07;82.03
63281;BME280;49406;51.044;3.766;2022-07-06T03:11:29;102721.90;;;12.03;82.34
63281;BME280;49406;51.044;3.766;2022-07-06T03:14:04;102723.61;;;11.96;82.57
63281;BME280;49406;51.044;3.766;2022-07-06T03:16:39;102723.84;;;11.92;82.51
63281;BME280;49406;51.044;3.766;2022-07-06T03:19:13;102725.91;;;11.91;82.51
63281;BME280;49406;51.044;3.766;2022-07-06T03:21:47;102720.33;;;11.87;82.76
63281;BME280;49406;51.044;3.766;2022-07-06T03:24:22;102717.70;;;11.82;83.20
63281;BME280;49406;51.044;3.766;2022-07-06T03:26:56;102715.52;;;11.80;83.12
63281;BME280;49406;51.044;3.766;2022-07-06T03:29:31;102717.27;;;11.79;82.91
63281;BME280;49406;51.044;3.766;2022-07-06T03:32:06;102721.85;;;11.75;83.22
63281;BME280;49406;51.044;3.766;2022-07-06T03:34:40;102722.13;;;11.68;83.54
63281;BME280;49406;51.044;3.766;2022-07-06T03:37:15;102723.67;;;11.67;83.72
63281;BME280;49406;51.044;3.766;2022-07-06T03:39:49;102723.41;;;11.70;83.83
63281;BME280;49406;51.044;3.766;2022-07-06T03:42:23;102725.67;;;11.69;83.99
63281;BME280;49406;51.044;3.766;2022-07-06T03:44:58;102721.17;;;11.65;84.41
63281;BME280;49406;51.044;3.766;2022-07-06T03:47:32;102723.49;;;11.67;84.37
63281;BME280;49406;51.044;3.766;2022-07-06T03:50:08;102726.38;;;11.69;84.18
63281;BME280;49406;51.044;3.766;2022-07-06T03:52:42;102731.60;;;11.68;84.54
63281;BME280;49406;51.044;3.766;2022-07-06T03:55:17;102728.55;;;11.66;84.81
63281;BME280;49406;51.044;3.766;2022-07-06T03:57:51;102730.60;;;11.70;84.79
63281;BME280;49406;51.044;3.766;2022-07-06T04:00:26;102728.02;;;11.76;84.57
63281;BME280;49406;51.044;3.766;2022-07-06T04:03:00;102726.66;;;11.77;84.60
63281;BME280;49406;51.044;3.766;2022-07-06T04:05:34;102726.02;;;11.79;84.87
63281;BME280;49406;51.044;3.766;2022-07-06T04:08:09;102723.05;;;11.84;84.93
63281;BME280;49406;51.044;3.766;2022-07-06T04:10:43;102719.73;;;11.95;84.85
63281;BME280;49406;51.044;3.766;2022-07-06T04:13:18;102724.14;;;12.02;84.60
63281;BME280;49406;51.044;3.766;2022-07-06T04:15:52;102723.54;;;12.05;84.71
63281;BME280;49406;51.044;3.766;2022-07-06T04:18:26;102728.13;;;12.11;84.60
63281;BME280;49406;51.044;3.766;2022-07-06T04:21:01;102729.64;;;12.20;84.32
63281;BME280;49406;51.044;3.766;2022-07-06T04:23:36;102728.44;;;12.26;84.40
63281;BME280;49406;51.044;3.766;2022-07-06T04:26:11;102732.60;;;12.30;84.50
63281;BME280;49406;51.044;3.766;2022-07-06T04:28:45;102733.11;;;12.35;84.47
63281;BME280;49406;51.044;3.766;2022-07-06T04:31:19;102732.04;;;12.46;84.09
63281;BME280;49406;51.044;3.766;2022-07-06T04:33:54;102732.93;;;12.58;83.83
63281;BME280;49406;51.044;3.766;2022-07-06T04:36:28;102731.90;;;12.64;83.60
63281;BME280;49406;51.044;3.766;2022-07-06T04:39:02;102727.08;;;12.68;83.52
63281;BME280;49406;51.044;3.766;2022-07-06T04:41:37;102732.01;;;12.75;83.28
63281;BME280;49406;51.044;3.766;2022-07-06T04:44:11;102734.25;;;12.85;82.97
63281;BME280;49406;51.044;3.766;2022-07-06T04:46:45;102732.33;;;12.92;83.04
63281;BME280;49406;51.044;3.766;2022-07-06T04:49:20;102735.11;;;12.97;82.84
63281;BME280;49406;51.044;3.766;2022-07-06T04:51:54;102736.52;;;13.03;82.63
63281;BME280;49406;51.044;3.766;2022-07-06T04:54:29;102736.47;;;13.13;82.26
63281;BME280;49406;51.044;3.766;2022-07-06T04:57:03;102732.48;;;13.27;81.76
63281;BME280;49406;51.044;3.766;2022-07-06T04:59:38;102738.52;;;13.36;81.66
63281;BME280;49406;51.044;3.766;2022-07-06T05:02:12;102736.91;;;13.48;81.39
63281;BME280;49406;51.044;3.766;2022-07-06T05:04:47;102736.58;;;13.62;81.22
63281;BME280;49406;51.044;3.766;2022-07-06T05:07:21;102744.02;;;13.78;80.58
63281;BME280;49406;51.044;3.766;2022-07-06T05:09:55;102746.61;;;13.98;79.94
63281;BME280;49406;51.044;3.766;2022-07-06T05:12:30;102749.42;;;14.12;79.58
63281;BME280;49406;51.044;3.766;2022-07-06T05:15:05;102754.64;;;14.26;79.07
63281;BME280;49406;51.044;3.766;2022-07-06T05:17:39;102755.59;;;14.42;78.63
63281;BME280;49406;51.044;3.766;2022-07-06T05:20:14;102755.36;;;14.62;77.93
63281;BME280;49406;51.044;3.766;2022-07-06T05:22:48;102755.41;;;14.81;77.30
63281;BME280;49406;51.044;3.766;2022-07-06T05:25:23;102756.77;;;15.05;76.35
63281;BME280;49406;51.044;3.766;2022-07-06T05:27:57;102755.25;;;15.34;75.37
63281;BME280;49406;51.044;3.766;2022-07-06T05:30:31;102757.23;;;15.56;74.66
63281;BME280;49406;51.044;3.766;2022-07-06T05:33:06;102755.11;;;15.84;74.14
63281;BME280;49406;51.044;3.766;2022-07-06T05:35:40;102753.39;;;16.31;73.02
63281;BME280;49406;51.044;3.766;2022-07-06T05:38:14;102755.49;;;16.92;71.54
63281;BME280;49406;51.044;3.766;2022-07-06T05:40:49;102757.37;;;17.49;69.92
63281;BME280;49406;51.044;3.766;2022-07-06T05:43:23;102764.56;;;17.97;68.81
63281;BME280;49406;51.044;3.766;2022-07-06T05:45:58;102759.38;;;18.40;67.51
63281;BME280;49406;51.044;3.766;2022-07-06T05:48:32;102763.03;;;18.90;66.11
63281;BME280;49406;51.044;3.766;2022-07-06T05:51:24;102763.95;;;19.56;64.19
63281;BME280;49406;51.044;3.766;2022-07-06T05:53:58;102758.46;;;20.19;62.53
63281;BME280;49406;51.044;3.766;2022-07-06T05:56:33;102755.55;;;20.63;60.66
63281;BME280;49406;51.044;3.766;2022-07-06T05:59:07;102754.02;;;20.92;59.33
63281;BME280;49406;51.044;3.766;2022-07-06T06:01:42;102757.05;;;20.91;57.85
63281;BME280;49406;51.044;3.766;2022-07-06T06:04:16;102756.73;;;20.79;57.55
63281;BME280;49406;51.044;3.766;2022-07-06T06:06:50;102758.52;;;20.78;57.59
63281;BME280;49406;51.044;3.766;2022-07-06T06:09:25;102755.42;;;20.98;56.86
63281;BME280;49406;51.044;3.766;2022-07-06T06:11:59;102754.67;;;21.03;56.27
63281;BME280;49406;51.044;3.766;2022-07-06T06:14:33;102754.46;;;21.10;55.53
63281;BME280;49406;51.044;3.766;2022-07-06T06:17:07;102755.00;;;21.10;55.32
63281;BME280;49406;51.044;3.766;2022-07-06T06:19:43;102755.35;;;21.09;55.48
63281;BME280;49406;51.044;3.766;2022-07-06T06:22:17;102755.10;;;21.27;55.17
63281;BME280;49406;51.044;3.766;2022-07-06T06:24:51;102753.41;;;21.43;54.45
63281;BME280;49406;51.044;3.766;2022-07-06T06:27:26;102752.98;;;21.76;53.59
63281;BME280;49406;51.044;3.766;2022-07-06T06:30:00;102749.94;;;22.22;52.79
63281;BME280;49406;51.044;3.766;2022-07-06T06:32:35;102747.96;;;22.71;51.45
63281;BME280;49406;51.044;3.766;2022-07-06T06:35:09;102747.80;;;23.00;50.09
63281;BME280;49406;51.044;3.766;2022-07-06T06:37:44;102759.02;;;23.01;49.61
63281;BME280;49406;51.044;3.766;2022-07-06T06:40:18;102760.05;;;23.04;49.18
63281;BME280;49406;51.044;3.766;2022-07-06T06:42:52;102765.90;;;23.20;49.10
63281;BME280;49406;51.044;3.766;2022-07-06T06:45:27;102768.09;;;23.54;48.22
63281;BME280;49406;51.044;3.766;2022-07-06T06:48:01;102775.66;;;23.49;47.80
63281;BME280;49406;51.044;3.766;2022-07-06T06:50:36;102777.02;;;23.41;47.83
63281;BME280;49406;51.044;3.766;2022-07-06T06:53:10;102779.20;;;23.50;47.63
63281;BME280;49406;51.044;3.766;2022-07-06T06:55:44;102781.91;;;23.84;46.65
63281;BME280;49406;51.044;3.766;2022-07-06T06:58:19;102774.20;;;24.16;45.91
63281;BME280;49406;51.044;3.766;2022-07-06T07:00:53;102774.50;;;24.59;45.10
63281;BME280;49406;51.044;3.766;2022-07-06T07:03:28;102779.16;;;24.93;44.18
63281;BME280;49406;51.044;3.766;2022-07-06T07:06:02;102779.17;;;25.03;43.72
63281;BME280;49406;51.044;3.766;2022-07-06T07:08:37;102774.73;;;25.17;43.05
63281;BME280;49406;51.044;3.766;2022-07-06T07:11:11;102780.33;;;25.31;42.81
63281;BME280;49406;51.044;3.766;2022-07-06T07:13:45;102781.40;;;25.39;42.14
63281;BME280;49406;51.044;3.766;2022-07-06T07:16:20;102780.16;;;25.46;41.71
63281;BME280;49406;51.044;3.766;2022-07-06T07:18:54;102779.45;;;25.61;41.29
63281;BME280;49406;51.044;3.766;2022-07-06T07:21:29;102785.88;;;25.62;40.97
63281;BME280;49406;51.044;3.766;2022-07-06T07:24:03;102784.39;;;25.73;40.64
63281;BME280;49406;51.044;3.766;2022-07-06T07:26:38;102782.09;;;25.93;40.17
63281;BME280;49406;51.044;3.766;2022-07-06T07:29:12;102774.62;;;26.05;39.73
63281;BME280;49406;51.044;3.766;2022-07-06T07:31:46;102775.06;;;26.15;39.51
63281;BME280;49406;51.044;3.766;2022-07-06T07:34:21;102774.48;;;26.10;39.17
63281;BME280;49406;51.044;3.766;2022-07-06T07:36:55;102769.62;;;26.04;39.06
63281;BME280;49406;51.044;3.766;2022-07-06T07:39:29;102772.41;;;26.06;38.97
63281;BME280;49406;51.044;3.766;2022-07-06T07:42:04;102774.45;;;26.18;39.28
63281;BME280;49406;51.044;3.766;2022-07-06T07:44:39;102771.91;;;26.26;38.45
63281;BME280;49406;51.044;3.766;2022-07-06T07:47:14;102764.83;;;26.43;37.99
63281;BME280;49406;51.044;3.766;2022-07-06T07:49:48;102765.98;;;26.72;37.68
63281;BME280;49406;51.044;3.766;2022-07-06T07:52:22;102765.55;;;27.28;36.69
63281;BME280;49406;51.044;3.766;2022-07-06T07:54:57;102768.09;;;27.61;36.15
63281;BME280;49406;51.044;3.766;2022-07-06T07:57:31;102764.67;;;27.72;34.94
63281;BME280;49406;51.044;3.766;2022-07-06T08:00:07;102760.95;;;27.60;34.44
63281;BME280;49406;51.044;3.766;2022-07-06T08:02:42;102759.59;;;27.52;34.56
63281;BME280;49406;51.044;3.766;2022-07-06T08:05:16;102754.23;;;27.28;34.44
63281;BME280;49406;51.044;3.766;2022-07-06T08:07:51;102747.46;;;26.61;35.43
63281;BME280;49406;51.044;3.766;2022-07-06T08:10:25;102742.77;;;26.36;36.16
63281;BME280;49406;51.044;3.766;2022-07-06T08:13:00;102742.24;;;26.02;36.20
63281;BME280;49406;51.044;3.766;2022-07-06T08:15:34;102738.54;;;25.72;36.44
63281;BME280;49406;51.044;3.766;2022-07-06T08:18:09;102736.80;;;25.84;37.24
63281;BME280;49406;51.044;3.766;2022-07-06T08:20:43;102726.20;;;26.31;37.15
63281;BME280;49406;51.044;3.766;2022-07-06T08:23:18;102723.01;;;26.93;36.49
63281;BME280;49406;51.044;3.766;2022-07-06T08:25:52;102713.98;;;27.62;35.44
63281;BME280;49406;51.044;3.766;2022-07-06T08:28:26;102714.72;;;27.78;35.19
63281;BME280;49406;51.044;3.766;2022-07-06T08:31:01;102711.70;;;27.82;34.49
63281;BME280;49406;51.044;3.766;2022-07-06T08:33:35;102706.63;;;28.13;33.90
63281;BME280;49406;51.044;3.766;2022-07-06T08:36:10;102704.84;;;28.13;33.61
63281;BME280;49406;51.044;3.766;2022-07-06T08:38:44;102709.33;;;27.88;33.98
63281;BME280;49406;51.044;3.766;2022-07-06T08:41:21;102715.97;;;27.29;34.10
63281;BME280;49406;51.044;3.766;2022-07-06T08:43:55;102711.36;;;26.68;34.79
63281;BME280;49406;51.044;3.766;2022-07-06T08:46:30;102710.85;;;26.42;35.81
63281;BME280;49406;51.044;3.766;2022-07-06T08:49:05;102713.92;;;26.29;36.23
63281;BME280;49406;51.044;3.766;2022-07-06T08:51:40;102714.73;;;26.19;36.32
63281;BME280;49406;51.044;3.766;2022-07-06T08:54:15;102715.23;;;25.87;36.60
63281;BME280;49406;51.044;3.766;2022-07-06T08:56:51;102718.36;;;25.40;37.11
63281;BME280;49406;51.044;3.766;2022-07-06T08:59:26;102722.40;;;25.04;38.04
63281;BME280;49406;51.044;3.766;2022-07-06T09:02:01;102731.10;;;24.91;38.34
63281;BME280;49406;51.044;3.766;2022-07-06T09:04:37;102735.81;;;24.62;38.65
63281;BME280;49406;51.044;3.766;2022-07-06T09:07:13;102735.46;;;24.53;39.48
63281;BME280;49406;51.044;3.766;2022-07-06T09:09:48;102733.38;;;24.59;40.07
63281;BME280;49406;51.044;3.766;2022-07-06T09:12:25;102731.02;;;24.51;39.42
63281;BME280;49406;51.044;3.766;2022-07-06T09:15:00;102725.10;;;24.23;39.91
63281;BME280;49406;51.044;3.766;2022-07-06T09:17:39;102726.88;;;24.14;40.19
63281;BME280;49406;51.044;3.766;2022-07-06T09:20:14;102724.98;;;24.10;40.66
63281;BME280;49406;51.044;3.766;2022-07-06T09:22:48;102726.89;;;24.53;40.04
63281;BME280;49406;51.044;3.766;2022-07-06T09:25:23;102728.30;;;24.53;39.75
63281;BME280;49406;51.044;3.766;2022-07-06T09:27:59;102728.27;;;24.80;39.75
63281;BME280;49406;51.044;3.766;2022-07-06T09:30:33;102729.21;;;25.20;38.73
63281;BME280;49406;51.044;3.766;2022-07-06T09:33:18;102732.30;;;25.26;38.75
63281;BME280;49406;51.044;3.766;2022-07-06T09:35:53;102731.23;;;25.33;38.25
63281;BME280;49406;51.044;3.766;2022-07-06T09:38:29;102733.48;;;25.29;38.23
63281;BME280;49406;51.044;3.766;2022-07-06T09:41:04;102737.44;;;25.35;37.78
63281;BME280;49406;51.044;3.766;2022-07-06T09:43:38;102735.58;;;25.23;37.53
63281;BME280;49406;51.044;3.766;2022-07-06T09:46:15;102737.54;;;25.15;37.82
63281;BME280;49406;51.044;3.766;2022-07-06T09:48:50;102741.39;;;25.35;37.58
63281;BME280;49406;51.044;3.766;2022-07-06T09:51:31;102741.90;;;25.28;37.12
63281;BME280;49406;51.044;3.766;2022-07-06T09:54:07;102742.63;;;25.43;37.06
63281;BME280;49406;51.044;3.766;2022-07-06T09:56:44;102741.39;;;25.87;36.74
63281;BME280;49406;51.044;3.766;2022-07-06T09:59:24;102730.80;;;26.21;36.13
63281;BME280;49406;51.044;3.766;2022-07-06T10:02:01;102732.61;;;26.28;35.47
63281;BME280;49406;51.044;3.766;2022-07-06T10:04:36;102731.52;;;26.21;36.13
63281;BME280;49406;51.044;3.766;2022-07-06T10:07:10;102729.37;;;26.53;36.22
63281;BME280;49406;51.044;3.766;2022-07-06T10:09:46;102726.52;;;26.33;36.15
63281;BME280;49406;51.044;3.766;2022-07-06T10:12:21;102726.68;;;26.21;36.66
63281;BME280;49406;51.044;3.766;2022-07-06T10:14:55;102726.64;;;26.16;36.60
63281;BME280;49406;51.044;3.766;2022-07-06T10:17:31;102732.05;;;26.15;36.77
63281;BME280;49406;51.044;3.766;2022-07-06T10:20:07;102735.52;;;26.40;36.78
63281;BME280;49406;51.044;3.766;2022-07-06T10:22:42;102737.46;;;26.72;35.94
63281;BME280;49406;51.044;3.766;2022-07-06T10:25:17;102738.63;;;26.92;35.32
63281;BME280;49406;51.044;3.766;2022-07-06T10:27:53;102734.77;;;26.96;35.07
63281;BME280;49406;51.044;3.766;2022-07-06T10:30:28;102735.17;;;26.76;35.13
63281;BME280;49406;51.044;3.766;2022-07-06T10:33:03;102728.86;;;26.65;35.16
63281;BME280;49406;51.044;3.766;2022-07-06T10:35:41;102731.66;;;26.55;35.19
63281;BME280;49406;51.044;3.766;2022-07-06T10:38:16;102729.23;;;26.89;34.79
63281;BME280;49406;51.044;3.766;2022-07-06T10:41:03;102727.18;;;27.21;34.44
63281;BME280;49406;51.044;3.766;2022-07-06T10:43:42;102729.16;;;27.15;35.22
63281;BME280;49406;51.044;3.766;2022-07-06T10:46:17;102731.11;;;27.27;34.78
63281;BME280;49406;51.044;3.766;2022-07-06T10:48:53;102723.10;;;27.74;33.66
63281;BME280;49406;51.044;3.766;2022-07-06T10:51:29;102719.63;;;28.22;32.61
63281;BME280;49406;51.044;3.766;2022-07-06T10:54:06;102722.95;;;28.55;32.55
63281;BME280;49406;51.044;3.766;2022-07-06T10:56:45;102728.84;;;28.60;32.55
63281;BME280;49406;51.044;3.766;2022-07-06T10:59:21;102729.23;;;28.35;32.29
63281;BME280;49406;51.044;3.766;2022-07-06T11:02:13;102729.42;;;27.99;32.62
63281;BME280;49406;51.044;3.766;2022-07-06T11:04:48;102728.53;;;28.00;32.12
63281;BME280;49406;51.044;3.766;2022-07-06T11:07:23;102719.11;;;28.11;32.00
63281;BME280;49406;51.044;3.766;2022-07-06T11:09:58;102719.41;;;27.78;32.81
63281;BME280;49406;51.044;3.766;2022-07-06T11:12:36;102717.61;;;27.50;33.25
63281;BME280;49406;51.044;3.766;2022-07-06T11:15:11;102713.21;;;27.36;33.28
63281;BME280;49406;51.044;3.766;2022-07-06T11:18:12;102710.38;;;27.41;32.94
63281;BME280;49406;51.044;3.766;2022-07-06T11:21:22;102709.02;;;27.49;32.53
63281;BME280;49406;51.044;3.766;2022-07-06T11:23:57;102699.94;;;27.63;32.33
63281;BME280;49406;51.044;3.766;2022-07-06T11:26:32;102705.20;;;28.23;32.35
63281;BME280;49406;51.044;3.766;2022-07-06T11:29:10;102706.35;;;28.56;32.17
63281;BME280;49406;51.044;3.766;2022-07-06T11:31:45;102701.66;;;28.75;31.92
63281;BME280;49406;51.044;3.766;2022-07-06T11:34:22;102705.29;;;28.55;31.85
63281;BME280;49406;51.044;3.766;2022-07-06T11:36:57;102705.48;;;28.69;30.96
63281;BME280;49406;51.044;3.766;2022-07-06T11:39:33;102703.48;;;29.02;31.55
63281;BME280;49406;51.044;3.766;2022-07-06T11:42:09;102699.86;;;29.33;31.02
63281;BME280;49406;51.044;3.766;2022-07-06T11:44:44;102694.21;;;29.48;30.65
63281;BME280;49406;51.044;3.766;2022-07-06T11:47:18;102690.48;;;29.43;28.97
63281;BME280;49406;51.044;3.766;2022-07-06T11:49:54;102690.60;;;28.72;28.15
63281;BME280;49406;51.044;3.766;2022-07-06T11:52:31;102685.43;;;28.42;28.72
63281;BME280;49406;51.044;3.766;2022-07-06T11:55:07;102679.90;;;27.92;29.24
63281;BME280;49406;51.044;3.766;2022-07-06T11:57:41;102682.92;;;27.67;29.95
63281;BME280;49406;51.044;3.766;2022-07-06T12:00:21;102679.42;;;27.75;30.10
63281;BME280;49406;51.044;3.766;2022-07-06T12:03:02;102669.90;;;27.74;30.30
63281;BME280;49406;51.044;3.766;2022-07-06T12:05:36;102667.77;;;27.84;30.29
63281;BME280;49406;51.044;3.766;2022-07-06T12:08:12;102665.52;;;28.01;30.32
63281;BME280;49406;51.044;3.766;2022-07-06T12:10:46;102665.64;;;28.38;30.31
63281;BME280;49406;51.044;3.766;2022-07-06T12:13:21;102668.42;;;28.40;29.99
63281;BME280;49406;51.044;3.766;2022-07-06T12:15:55;102667.70;;;28.11;30.68
63281;BME280;49406;51.044;3.766;2022-07-06T12:18:38;102663.98;;;28.00;30.52
63281;BME280;49406;51.044;3.766;2022-07-06T12:21:16;102659.48;;;27.63;30.53
63281;BME280;49406;51.044;3.766;2022-07-06T12:23:52;102661.65;;;27.09;31.71
63281;BME280;49406;51.044;3.766;2022-07-06T12:26:27;102664.11;;;26.70;32.81
63281;BME280;49406;51.044;3.766;2022-07-06T12:29:04;102659.96;;;26.59;33.11
63281;BME280;49406;51.044;3.766;2022-07-06T12:31:43;102658.11;;;27.02;33.12
63281;BME280;49406;51.044;3.766;2022-07-06T12:34:20;102659.02;;;26.90;32.38
63281;BME280;49406;51.044;3.766;2022-07-06T12:36:57;102659.41;;;26.48;32.71
63281;BME280;49406;51.044;3.766;2022-07-06T12:39:39;102661.08;;;26.27;33.14
63281;BME280;49406;51.044;3.766;2022-07-06T12:42:16;102661.70;;;26.36;33.07
63281;BME280;49406;51.044;3.766;2022-07-06T12:44:52;102659.64;;;26.87;33.00
63281;BME280;49406;51.044;3.766;2022-07-06T12:47:26;102654.88;;;27.41;32.47
63281;BME280;49406;51.044;3.766;2022-07-06T12:50:09;102652.64;;;27.75;31.53
63281;BME280;49406;51.044;3.766;2022-07-06T12:52:44;102648.64;;;27.81;31.53
63281;BME280;49406;51.044;3.766;2022-07-06T12:55:18;102646.48;;;27.71;31.65
63281;BME280;49406;51.044;3.766;2022-07-06T12:57:59;102647.90;;;27.39;31.88
63281;BME280;49406;51.044;3.766;2022-07-06T13:00:45;102636.15;;;27.09;32.34
63281;BME280;49406;51.044;3.766;2022-07-06T13:03:19;102633.34;;;27.45;32.52
63281;BME280;49406;51.044;3.766;2022-07-06T13:05:54;102632.49;;;27.85;32.27
63281;BME280;49406;51.044;3.766;2022-07-06T13:08:28;102637.02;;;28.24;31.14
63281;BME280;49406;51.044;3.766;2022-07-06T13:11:02;102638.91;;;28.45;30.44
63281;BME280;49406;51.044;3.766;2022-07-06T13:13:45;102644.32;;;28.68;30.61
63281;BME280;49406;51.044;3.766;2022-07-06T13:16:19;102644.02;;;28.67;30.65
63281;BME280;49406;51.044;3.766;2022-07-06T13:18:55;102641.61;;;29.00;31.23
63281;BME280;49406;51.044;3.766;2022-07-06T13:21:29;102639.69;;;29.17;30.76
63281;BME280;49406;51.044;3.766;2022-07-06T13:24:05;102635.84;;;29.31;30.35
63281;BME280;49406;51.044;3.766;2022-07-06T13:26:39;102629.73;;;29.18;30.22
63281;BME280;49406;51.044;3.766;2022-07-06T13:29:14;102622.29;;;29.02;30.59
63281;BME280;49406;51.044;3.766;2022-07-06T13:31:48;102617.53;;;29.04;30.40